createdAt,value
2022-11-28T00:01:29.255Z,12.23
2022-11-28T00:03:56.187Z,11.50
2022-11-28T00:06:23.158Z,11.53
2022-11-28T00:08:50.395Z,12.43
2022-11-28T00:11:18.008Z,12.33
2022-11-28T00:13:45.481Z,14.23
2022-11-28T00:16:22.312Z,12.23
2022-11-28T00:18:51.434Z,19.03
2022-11-28T00:21:19.119Z,15.77
2022-11-28T00:23:47.143Z,11.57
2022-11-28T00:26:18.522Z,11.30
2022-11-28T00:28:45.419Z,10.53
2022-11-28T00:31:16.479Z,9.60
2022-11-28T00:33:43.293Z,12.10
2022-11-28T00:36:11.657Z,10.63
2022-11-28T00:38:38.736Z,12.37
2022-11-28T00:41:11.277Z,12.57
2022-11-28T00:43:38.195Z,13.53
2022-11-28T00:46:05.186Z,21.10
2022-11-28T00:48:33.624Z,13.73
2022-11-28T00:51:09.349Z,12.63
2022-11-28T00:53:37.293Z,11.70
2022-11-28T00:56:06.393Z,11.70
2022-11-28T00:58:34.992Z,10.93
2022-11-28T01:01:11.599Z,10.03
2022-11-28T01:03:39.482Z,8.63
2022-11-28T01:06:07.517Z,8.07
2022-11-28T01:08:34.871Z,9.17
2022-11-28T01:11:01.869Z,8.40
2022-11-28T01:13:28.889Z,7.87
2022-11-28T01:15:55.780Z,6.43
2022-11-28T01:18:22.568Z,8.40
2022-11-28T01:20:49.195Z,7.30
2022-11-28T01:23:16.930Z,7.67
2022-11-28T01:25:43.588Z,7.40
2022-11-28T01:28:10.365Z,6.37
2022-11-28T01:30:37.240Z,9.17
2022-11-28T01:33:04.008Z,7.80
2022-11-28T01:35:30.631Z,7.40
2022-11-28T01:37:57.662Z,7.40
2022-11-28T01:40:24.318Z,9.27
2022-11-28T01:42:51.022Z,7.07
2022-11-28T01:45:24.601Z,6.87
2022-11-28T01:47:54.647Z,7.63
2022-11-28T01:50:23.193Z,8.90
2022-11-28T01:52:53.573Z,7.57
2022-11-28T01:55:24.904Z,9.60
2022-11-28T01:57:54.604Z,10.33
2022-11-28T02:00:22.222Z,8.97
2022-11-28T02:02:50.517Z,7.83
2022-11-28T02:05:19.050Z,8.97
2022-11-28T02:07:47.113Z,8.50
2022-11-28T02:10:20.595Z,9.70
2022-11-28T02:13:12.303Z,8.27
2022-11-28T02:16:07.132Z,7.30
2022-11-28T02:19:09.206Z,10.05
2022-11-28T02:21:52.743Z,9.97
2022-11-28T02:24:51.908Z,8.43
2022-11-28T02:27:38.433Z,7.77
2022-11-28T02:30:55.725Z,8.40
2022-11-28T02:33:28.270Z,8.30
2022-11-28T02:36:07.747Z,8.30
2022-11-28T02:38:52.876Z,8.33
2022-11-28T02:41:43.230Z,9.20
2022-11-28T02:44:18.343Z,7.63
2022-11-28T02:47:03.228Z,8.23
2022-11-28T02:49:41.236Z,6.10
2022-11-28T02:52:19.607Z,7.67
2022-11-28T02:54:48.800Z,9.30
2022-11-28T02:57:15.623Z,9.43
2022-11-28T02:59:42.310Z,8.33
2022-11-28T03:02:31.800Z,7.40
2022-11-28T03:05:34.768Z,8.97
2022-11-28T03:08:13.395Z,8.80
2022-11-28T03:10:46.121Z,10.43
2022-11-28T03:13:28.620Z,10.07
2022-11-28T03:16:20.061Z,11.40
2022-11-28T03:19:04.805Z,9.97
2022-11-28T03:21:31.526Z,31.25
2022-11-28T03:24:03.200Z,29.73
2022-11-28T03:26:54.154Z,17.47
2022-11-28T03:29:34.574Z,21.20
2022-11-28T03:32:08.304Z,38.90
2022-11-28T03:34:40.995Z,10.80
2022-11-28T03:37:13.543Z,9.87
2022-11-28T03:39:49.027Z,11.10
2022-11-28T03:42:25.024Z,10.37
2022-11-28T03:45:09.600Z,8.53
2022-11-28T03:47:42.356Z,10.73
2022-11-28T03:50:19.767Z,11.80
2022-11-28T03:52:54.661Z,8.27
2022-11-28T03:57:59.940Z,31.60
2022-11-28T04:00:27.266Z,13.43
2022-11-28T04:03:21.197Z,15.07
2022-11-28T04:05:54.177Z,11.23
2022-11-28T04:08:48.917Z,12.53
2022-11-28T04:11:29.134Z,14.45
2022-11-28T04:14:13.246Z,13.03
2022-11-28T04:16:54.112Z,9.83
2022-11-28T04:19:50.531Z,17.23
2022-11-28T04:22:21.711Z,11.63
2022-11-28T04:25:11.095Z,11.40
2022-11-28T04:27:41.695Z,11.33
2022-11-28T04:30:09.963Z,14.87
2022-11-28T04:32:40.562Z,13.50
2022-11-28T04:35:12.253Z,13.57
2022-11-28T04:37:42.269Z,13.97
2022-11-28T04:40:11.981Z,20.90
2022-11-28T04:43:02.730Z,20.77
2022-11-28T04:45:36.212Z,20.50
2022-11-28T04:48:03.416Z,21.27
2022-11-28T04:50:42.459Z,15.30
2022-11-28T04:53:35.490Z,15.60
2022-11-28T04:56:08.187Z,23.47
2022-11-28T04:58:40.068Z,17.33
2022-11-28T05:01:10.970Z,16.90
2022-11-28T05:03:42.610Z,18.10
2022-11-28T05:06:09.952Z,25.93
2022-11-28T05:08:36.868Z,39.77
2022-11-28T05:11:03.645Z,20.60
2022-11-28T05:13:30.323Z,22.27
2022-11-28T05:16:00.808Z,24.37
2022-11-28T05:18:27.537Z,24.27
2022-11-28T05:20:54.895Z,23.70
2022-11-28T05:23:21.583Z,28.60
2022-11-28T05:25:48.228Z,50.50
2022-11-28T05:28:14.907Z,36.57
2022-11-28T05:30:41.592Z,31.93
2022-11-28T05:33:08.316Z,23.37
2022-11-28T05:35:34.974Z,29.47
2022-11-28T05:38:01.704Z,34.23
2022-11-28T05:40:28.460Z,28.20
2022-11-28T05:42:55.239Z,23.60
2022-11-28T05:45:21.984Z,24.20
2022-11-28T05:47:48.719Z,21.53
2022-11-28T05:50:15.613Z,23.83
2022-11-28T05:52:42.297Z,18.50
2022-11-28T05:55:09.543Z,30.40
2022-11-28T05:57:36.268Z,26.07
2022-11-28T06:00:04.166Z,30.87
2022-11-28T06:02:30.976Z,36.07
2022-11-28T06:04:57.746Z,37.33
2022-11-28T06:07:24.495Z,40.23
2022-11-28T06:09:51.296Z,38.80
2022-11-28T06:12:17.948Z,38.87
2022-11-28T06:14:44.670Z,85.10
2022-11-28T06:17:11.501Z,42.80
2022-11-28T06:19:38.333Z,28.70
2022-11-28T06:22:05.591Z,28.73
2022-11-28T06:24:32.273Z,32.03
2022-11-28T06:26:59.013Z,33.57
2022-11-28T06:29:25.625Z,27.30
2022-11-28T06:31:52.434Z,28.80
2022-11-28T06:34:19.163Z,28.77
2022-11-28T06:36:45.941Z,40.33
2022-11-28T06:39:15.439Z,32.70
2022-11-28T06:41:43.371Z,37.53
2022-11-28T06:44:14.448Z,33.60
2022-11-28T06:46:41.913Z,37.67
2022-11-28T06:49:12.167Z,33.33
2022-11-28T06:51:40.504Z,34.33
2022-11-28T06:54:07.584Z,40.63
2022-11-28T06:56:34.350Z,44.10
2022-11-28T06:59:01.340Z,25.97
2022-11-28T07:01:31.305Z,33.00
2022-11-28T07:03:58.162Z,34.57
2022-11-28T07:06:26.314Z,33.30
2022-11-28T07:08:53.940Z,33.53
2022-11-28T07:11:24.654Z,30.83
2022-11-28T07:13:53.960Z,32.80
2022-11-28T07:16:26.658Z,28.63
2022-11-28T07:18:54.266Z,30.67
2022-11-28T07:21:21.723Z,31.43
2022-11-28T07:23:48.873Z,41.37
2022-11-28T07:26:18.326Z,30.40
2022-11-28T07:28:46.139Z,26.07
2022-11-28T07:31:22.003Z,33.73
2022-11-28T07:33:50.796Z,30.30
2022-11-28T07:36:23.251Z,28.90
2022-11-28T07:38:51.803Z,29.97
2022-11-28T07:41:23.680Z,25.57
2022-11-28T07:44:03.918Z,26.02
2022-11-28T07:46:32.287Z,24.57
2022-11-28T07:48:59.988Z,22.77
2022-11-28T07:51:29.889Z,19.47
2022-11-28T07:53:56.948Z,18.27
2022-11-28T07:56:35.146Z,23.13
2022-11-28T07:59:07.455Z,20.97
2022-11-28T08:01:36.299Z,23.60
2022-11-28T08:04:06.457Z,28.60
2022-11-28T08:06:37.794Z,26.97
2022-11-28T08:09:04.642Z,29.27
2022-11-28T08:11:32.697Z,27.93
2022-11-28T08:13:59.969Z,29.50
2022-11-28T08:16:28.938Z,30.03
2022-11-28T08:18:56.570Z,30.50
2022-11-28T08:21:26.421Z,34.70
2022-11-28T08:23:54.701Z,48.03
2022-11-28T08:26:28.965Z,45.33
2022-11-28T08:28:56.272Z,50.45
2022-11-28T08:31:26.514Z,49.87
2022-11-28T08:33:57.048Z,47.33
2022-11-28T08:36:24.154Z,47.20
2022-11-28T08:39:03.903Z,61.17
2022-11-28T08:41:38.491Z,49.10
2022-11-28T08:44:05.267Z,54.90
2022-11-28T08:46:32.712Z,60.93
2022-11-28T08:49:04.226Z,50.23
2022-11-28T08:51:31.335Z,50.27
2022-11-28T08:53:59.724Z,54.07
2022-11-28T08:56:27.254Z,47.77
2022-11-28T08:58:54.981Z,43.40
2022-11-28T09:01:24.371Z,52.17
2022-11-28T09:03:51.820Z,74.87
2022-11-28T09:06:20.591Z,48.50
2022-11-28T09:08:48.358Z,50.13
2022-11-28T09:11:17.706Z,55.80
2022-11-28T09:13:44.954Z,58.50
2022-11-28T09:16:12.321Z,40.23
2022-11-28T09:18:39.073Z,41.30
2022-11-28T09:21:11.845Z,44.40
2022-11-28T09:23:41.021Z,60.17
2022-11-28T09:26:12.493Z,55.67
2022-11-28T09:28:39.196Z,48.70
2022-11-28T09:31:07.757Z,59.33
2022-11-28T09:33:35.786Z,50.43
2022-11-28T09:36:08.197Z,43.97
2022-11-28T09:38:35.546Z,44.73
2022-11-28T09:41:03.684Z,45.80
2022-11-28T09:43:38.484Z,26.93
2022-11-28T09:46:12.123Z,23.70
2022-11-28T09:48:45.142Z,21.70
2022-11-28T09:51:42.563Z,21.60
2022-11-28T09:54:28.050Z,18.37
2022-11-28T09:56:57.053Z,17.30
2022-11-28T09:59:27.307Z,20.77
2022-11-28T10:02:15.489Z,27.67
2022-11-28T10:05:36.086Z,35.10
2022-11-28T10:08:11.734Z,51.00
2022-11-28T10:10:49.539Z,19.70
2022-11-28T10:13:21.646Z,25.17
2022-11-28T10:15:57.266Z,25.97
2022-11-28T10:18:50.966Z,23.13
2022-11-28T10:21:28.351Z,51.60
2022-11-28T10:23:59.968Z,66.17
2022-11-28T10:26:26.614Z,22.97
2022-11-28T10:28:56.968Z,26.47
2022-11-28T10:31:39.085Z,19.60
2022-11-28T10:34:45.482Z,23.30
2022-11-28T10:37:28.217Z,16.63
2022-11-28T10:39:56.290Z,15.33
2022-11-28T10:42:46.217Z,19.50
2022-11-28T10:45:31.034Z,27.63
2022-11-28T10:48:39.000Z,21.55
2022-11-28T10:51:25.418Z,20.97
2022-11-28T10:54:10.967Z,15.93
2022-11-28T10:56:53.609Z,16.57
2022-11-28T10:59:36.210Z,15.97
2022-11-28T11:02:41.359Z,17.80
2022-11-28T11:05:13.677Z,24.08
2022-11-28T11:07:48.307Z,20.77
2022-11-28T11:10:16.648Z,24.80
2022-11-28T11:12:44.451Z,27.73
2022-11-28T11:15:22.522Z,26.13
2022-11-28T11:17:50.904Z,28.23
2022-11-28T11:20:23.708Z,22.17
2022-11-28T11:23:01.466Z,27.33
2022-11-28T11:25:31.478Z,22.97
2022-11-28T11:28:04.620Z,42.30
2022-11-28T11:30:38.917Z,22.60
2022-11-28T11:33:12.417Z,39.38
2022-11-28T11:35:47.156Z,31.13
2022-11-28T11:38:22.486Z,26.38
2022-11-28T11:40:50.625Z,18.80
2022-11-28T11:43:26.800Z,42.23
2022-11-28T11:46:11.537Z,34.17
2022-11-28T11:51:21.588Z,42.80
2022-11-28T11:53:48.819Z,22.53
2022-11-28T11:56:15.788Z,29.60
2022-11-28T11:58:52.242Z,23.80
2022-11-28T12:01:19.926Z,30.73
2022-11-28T12:04:08.521Z,21.07
2022-11-28T12:06:47.189Z,13.27
2022-11-28T12:09:23.242Z,12.53
2022-11-28T12:11:54.114Z,17.17
2022-11-28T12:14:31.598Z,19.50
2022-11-28T12:17:25.746Z,22.00
2022-11-28T12:19:59.558Z,19.00
2022-11-28T12:22:47.402Z,22.50
2022-11-28T12:25:20.103Z,35.17
2022-11-28T12:27:53.871Z,47.73
2022-11-28T12:30:39.187Z,38.00
2022-11-28T12:33:44.046Z,27.30
2022-11-28T12:36:20.781Z,26.10
2022-11-28T12:39:04.740Z,22.83
2022-11-28T12:42:02.555Z,19.93
2022-11-28T12:44:39.601Z,19.40
2022-11-28T12:47:30.944Z,20.13
2022-11-28T12:50:02.857Z,29.67
2022-11-28T12:53:07.727Z,30.43
2022-11-28T12:55:47.116Z,21.53
2022-11-28T12:58:13.804Z,24.33
2022-11-28T13:01:16.216Z,25.33
2022-11-28T13:04:13.018Z,33.10
2022-11-28T13:06:57.987Z,61.37
2022-11-28T13:09:49.161Z,79.65
2022-11-28T13:12:27.941Z,39.97
2022-11-28T13:15:03.174Z,36.80
2022-11-28T13:17:38.874Z,37.03
2022-11-28T13:20:18.382Z,41.57
2022-11-28T13:23:15.379Z,28.60
2022-11-28T13:26:09.433Z,41.70
2022-11-28T13:28:39.059Z,49.07
2022-11-28T13:31:18.041Z,98.27
2022-11-28T13:33:47.755Z,41.30
2022-11-28T13:39:40.266Z,54.20
2022-11-28T13:42:52.796Z,42.67
2022-11-28T13:45:32.386Z,26.40
2022-11-28T13:48:00.952Z,46.97
2022-11-28T13:50:39.844Z,31.73
2022-11-28T13:53:06.459Z,63.83
2022-11-28T13:55:59.057Z,26.13
2022-11-28T13:58:33.813Z,29.67
2022-11-28T14:01:05.718Z,36.60
2022-11-28T14:03:54.364Z,37.77
2022-11-28T14:06:24.541Z,31.27
2022-11-28T14:09:17.636Z,36.70
2022-11-28T14:11:56.362Z,29.67
2022-11-28T14:14:51.273Z,121.87
2022-11-28T14:18:31.478Z,45.03
2022-11-28T14:21:05.101Z,44.70
2022-11-28T14:23:44.066Z,46.17
2022-11-28T14:26:40.080Z,44.57
2022-11-28T14:29:18.996Z,44.67
2022-11-28T14:32:06.541Z,54.53
2022-11-28T14:34:44.679Z,54.07
2022-11-28T14:37:20.883Z,51.97
2022-11-28T14:39:49.531Z,68.17
2022-11-28T14:42:36.935Z,64.03
2022-11-28T14:45:41.897Z,51.90
2022-11-28T14:48:23.471Z,57.70
2022-11-28T14:50:59.075Z,66.03
2022-11-28T14:53:33.891Z,69.00
2022-11-28T14:56:13.836Z,73.50
2022-11-28T14:58:47.472Z,87.00
2022-11-28T15:01:24.251Z,80.97
2022-11-28T15:04:00.271Z,81.13
2022-11-28T15:06:35.458Z,82.03
2022-11-28T15:09:34.991Z,89.10
2022-11-28T15:12:05.080Z,91.57
2022-11-28T15:14:33.602Z,96.20
2022-11-28T15:17:05.995Z,99.63
2022-11-28T15:19:49.975Z,99.73
2022-11-28T15:22:40.072Z,96.77
2022-11-28T15:25:19.822Z,86.60
2022-11-28T15:27:46.527Z,112.33
2022-11-28T15:30:18.050Z,98.10
2022-11-28T15:32:45.452Z,99.07
2022-11-28T15:35:17.730Z,115.60
2022-11-28T15:37:54.432Z,107.83
2022-11-28T15:40:29.001Z,105.33
2022-11-28T15:42:55.752Z,130.25
2022-11-28T15:45:25.713Z,119.53
2022-11-28T15:47:54.322Z,129.03
2022-11-28T15:50:27.264Z,118.10
2022-11-28T15:53:02.926Z,140.17
2022-11-28T15:55:32.341Z,138.87
2022-11-28T15:58:17.808Z,134.60
2022-11-28T16:00:58.509Z,137.47
2022-11-28T16:03:30.323Z,159.07
2022-11-28T16:05:58.567Z,137.13
2022-11-28T16:08:31.796Z,125.53
2022-11-28T16:11:01.991Z,155.10
2022-11-28T16:13:31.479Z,146.97
2022-11-28T16:16:01.499Z,126.03
2022-11-28T16:18:29.317Z,127.10
2022-11-28T16:20:58.464Z,141.20
2022-11-28T16:23:33.042Z,149.67
2022-11-28T16:26:04.052Z,146.68
2022-11-28T16:28:40.944Z,144.23
2022-11-28T16:31:20.783Z,142.57
2022-11-28T16:33:48.059Z,162.83
2022-11-28T16:36:22.429Z,146.03
2022-11-28T16:38:52.221Z,157.02
2022-11-28T16:41:24.053Z,183.70
2022-11-28T16:44:22.327Z,166.80
2022-11-28T16:46:55.334Z,158.37
2022-11-28T16:49:31.312Z,214.27
2022-11-28T16:52:27.475Z,203.70
2022-11-28T16:54:55.692Z,194.17
2022-11-28T16:57:25.461Z,211.93
2022-11-28T16:59:54.316Z,190.23
2022-11-28T17:02:23.289Z,168.43
2022-11-28T17:04:52.024Z,162.90
2022-11-28T17:07:21.842Z,181.57
2022-11-28T17:09:51.763Z,145.30
2022-11-28T17:12:28.974Z,172.93
2022-11-28T17:14:56.178Z,155.13
2022-11-28T17:17:23.641Z,154.90
2022-11-28T17:19:50.980Z,174.23
2022-11-28T17:22:21.468Z,171.07
2022-11-28T17:24:49.887Z,181.23
2022-11-28T17:27:16.619Z,156.63
2022-11-28T17:29:44.056Z,188.80
2022-11-28T17:32:14.604Z,171.73
2022-11-28T17:34:42.299Z,173.60
2022-11-28T17:37:09.784Z,167.40
2022-11-28T17:39:36.485Z,163.93
2022-11-28T17:42:04.775Z,175.63
2022-11-28T17:44:37.674Z,173.40
2022-11-28T17:47:04.687Z,159.67
2022-11-28T17:49:31.715Z,172.00
2022-11-28T17:51:58.651Z,174.43
2022-11-28T17:54:26.797Z,176.03
2022-11-28T17:56:54.327Z,194.20
2022-11-28T17:59:23.683Z,190.63
2022-11-28T18:01:50.682Z,228.00
2022-11-28T18:04:17.966Z,216.23
2022-11-28T18:06:48.444Z,204.63
2022-11-28T18:09:15.779Z,166.77
2022-11-28T18:11:43.150Z,177.23
2022-11-28T18:14:10.075Z,164.73
2022-11-28T18:16:37.453Z,158.87
2022-11-28T18:19:04.283Z,161.77
2022-11-28T18:21:31.826Z,172.07
2022-11-28T18:23:58.572Z,182.13
2022-11-28T18:26:27.850Z,198.70
2022-11-28T18:28:54.878Z,196.43
2022-11-28T18:31:24.768Z,178.37
2022-11-28T18:33:55.117Z,195.70
2022-11-28T18:36:26.508Z,200.70
2022-11-28T18:39:02.933Z,209.87
2022-11-28T18:41:30.421Z,201.23
2022-11-28T18:43:58.996Z,163.30
2022-11-28T18:46:27.242Z,130.07
2022-11-28T18:48:53.986Z,153.93
2022-11-28T18:51:29.164Z,141.90
2022-11-28T18:53:56.821Z,141.57
2022-11-28T18:56:24.850Z,140.77
2022-11-28T18:58:53.576Z,140.67
2022-11-28T19:01:28.976Z,140.43
2022-11-28T19:04:06.212Z,140.87
2022-11-28T19:06:35.411Z,140.87
2022-11-28T19:09:04.573Z,112.33
2022-11-28T19:11:31.383Z,92.87
2022-11-28T19:13:58.648Z,91.17
2022-11-28T19:16:28.512Z,87.07
2022-11-28T19:18:55.942Z,90.30
2022-11-28T19:21:25.818Z,101.70
2022-11-28T19:23:54.953Z,138.47
2022-11-28T19:26:23.875Z,166.63
2022-11-28T19:28:50.692Z,151.60
2022-11-28T19:31:23.031Z,148.70
2022-11-28T19:34:10.134Z,158.87
2022-11-28T19:36:41.016Z,169.10
2022-11-28T19:39:13.311Z,172.40
2022-11-28T19:41:40.327Z,157.90
2022-11-28T19:44:07.100Z,168.77
2022-11-28T19:46:35.652Z,156.70
2022-11-28T19:49:03.944Z,165.53
2022-11-28T19:51:31.075Z,147.07
2022-11-28T19:54:03.105Z,168.80
2022-11-28T19:56:31.449Z,151.13
2022-11-28T19:58:58.457Z,182.00
2022-11-28T20:01:26.277Z,195.77
2022-11-28T20:03:53.324Z,189.10
2022-11-28T20:06:24.312Z,204.07
2022-11-28T20:08:53.111Z,181.93
2022-11-28T20:11:29.050Z,136.70
2022-11-28T20:13:58.524Z,138.77
2022-11-28T20:16:25.472Z,142.70
2022-11-28T20:18:52.264Z,165.90
2022-11-28T20:21:20.740Z,167.87
2022-11-28T20:23:54.860Z,158.73
2022-11-28T20:26:23.806Z,147.80
2022-11-28T20:28:50.810Z,146.50
2022-11-28T20:31:23.276Z,166.97
2022-11-28T20:33:51.331Z,169.70
2022-11-28T20:36:19.960Z,179.90
2022-11-28T20:38:47.755Z,192.20
2022-11-28T20:41:15.559Z,175.07
2022-11-28T20:43:43.349Z,153.30
2022-11-28T20:46:22.898Z,162.23
2022-11-28T20:48:50.621Z,179.17
2022-11-28T20:51:22.980Z,183.90
2022-11-28T20:53:49.773Z,191.47
2022-11-28T20:56:19.971Z,167.43
2022-11-28T20:58:47.316Z,183.83
2022-11-28T21:01:23.131Z,186.80
2022-11-28T21:03:51.640Z,193.50
2022-11-28T21:06:19.534Z,226.73
2022-11-28T21:08:46.483Z,218.77
2022-11-28T21:11:36.968Z,185.13
2022-11-28T21:14:07.431Z,163.13
2022-11-28T21:16:34.781Z,171.93
2022-11-28T21:19:11.435Z,165.20
2022-11-28T21:21:40.251Z,187.60
2022-11-28T21:24:10.434Z,174.60
2022-11-28T21:26:41.414Z,171.37
2022-11-28T21:29:11.062Z,168.77
2022-11-28T21:31:42.488Z,144.73
2022-11-28T21:34:19.645Z,155.63
2022-11-28T21:36:46.606Z,156.10
2022-11-28T21:39:15.740Z,153.17
2022-11-28T21:41:42.700Z,159.83
2022-11-28T21:44:09.348Z,169.03
2022-11-28T21:46:36.211Z,166.57
2022-11-28T21:49:03.011Z,174.33
2022-11-28T21:51:29.900Z,161.77
2022-11-28T21:53:59.409Z,154.33
2022-11-28T21:56:26.226Z,162.97
2022-11-28T21:58:52.924Z,159.57
2022-11-28T22:01:21.245Z,170.80
2022-11-28T22:03:50.450Z,176.07
2022-11-28T22:06:18.215Z,185.73
2022-11-28T22:08:45.347Z,163.37
2022-11-28T22:11:13.488Z,177.73
2022-11-28T22:13:42.387Z,183.17
2022-11-28T22:16:20.770Z,175.13
2022-11-28T22:18:48.381Z,161.47
2022-11-28T22:24:05.286Z,152.43
2022-11-28T22:26:32.061Z,108.83
2022-11-28T22:29:01.426Z,140.53
2022-11-28T22:31:28.339Z,124.00
2022-11-28T22:33:55.488Z,148.73
2022-11-28T22:36:22.614Z,143.03
2022-11-28T22:38:54.536Z,129.70
2022-11-28T22:41:28.496Z,149.20
2022-11-28T22:44:00.912Z,116.80
2022-11-28T22:46:28.744Z,114.73
2022-11-28T22:48:55.743Z,106.53
2022-11-28T22:51:25.175Z,113.27
2022-11-28T22:53:57.295Z,117.13
2022-11-28T22:56:24.812Z,118.67
2022-11-28T22:58:51.812Z,130.60
2022-11-28T23:01:25.106Z,131.60
2022-11-28T23:03:52.671Z,162.67
2022-11-28T23:06:21.956Z,146.93
2022-11-28T23:08:49.364Z,136.23
2022-11-28T23:11:22.985Z,146.90
2022-11-28T23:13:50.954Z,147.00
2022-11-28T23:16:23.254Z,119.33
2022-11-28T23:18:52.802Z,135.97
2022-11-28T23:21:20.478Z,117.73
2022-11-28T23:23:47.579Z,116.60
2022-11-28T23:26:20.479Z,110.40
2022-11-28T23:28:47.302Z,112.80
2022-11-28T23:31:15.239Z,104.90
2022-11-28T23:33:42.800Z,89.53
2022-11-28T23:36:15.438Z,104.57
2022-11-28T23:38:42.664Z,90.90
2022-11-28T23:41:09.722Z,76.17
2022-11-28T23:43:36.420Z,85.03
2022-11-28T23:46:04.579Z,79.63
2022-11-28T23:48:31.362Z,67.63
2022-11-28T23:50:58.329Z,71.00
2022-11-28T23:53:25.227Z,83.83
2022-11-28T23:55:51.959Z,78.50
2022-11-28T23:58:19.299Z,78.30
